Time;durP1;ratioP1;P1;durP2;ratioP2;P2;SDS_P1;SDS_P2;PMS_P1;PMS_P2;Temp;Humidity;BMP_temperature;BMP_pressure;BME280_temperature;BME280_humidity;BME280_pressure;Samples;Min_cycle;Max_cycle;Signal;HPM_P1;HPM_P2
2022/05/28 00:00:13;;;;;;;5.57;1.58;;;;;;;;;;5054903;28;20062;-72
2022/05/28 00:02:39;;;;;;;8.90;2.15;;;;;;;;;;5074271;28;20046;-72
2022/05/28 00:05:05;;;;;;;8.88;1.73;;;;;;;;;;5073798;28;20029;-73
2022/05/28 00:07:32;;;;;;;8.10;1.85;;;;;;;;;;5055234;28;20401;-72
2022/05/28 00:09:58;;;;;;;11.82;2.45;;;;;;;;;;5073733;28;20045;-72
2022/05/28 00:12:31;;;;;;;9.15;2.83;;;;;;;;;;5055598;28;20048;-73
2022/05/28 00:14:59;;;;;;;11.07;1.73;;;;;;;;;;5054978;28;20401;-72
2022/05/28 00:17:28;;;;;;;9.05;2.00;;;;;;;;;;5055808;28;20196;-72
2022/05/28 00:19:56;;;;;;;8.90;2.42;;;;;;;;;;5055800;28;20045;-72
2022/05/28 00:22:22;;;;;;;7.47;1.85;;;;;;;;;;5038205;28;20051;-72
2022/05/28 00:24:48;;;;;;;7.43;1.50;;;;;;;;;;5072635;28;20120;-71
2022/05/28 00:27:14;;;;;;;12.05;2.45;;;;;;;;;;5055694;28;20048;-71
2022/05/28 00:29:40;;;;;;;10.73;1.70;;;;;;;;;;5054974;28;20051;-72
2022/05/28 00:32:09;;;;;;;7.32;2.15;;;;;;;;;;5055100;28;20045;-71
2022/05/28 00:34:49;;;;;;;10.02;2.65;;;;;;;;;;5072791;28;20041;-71
2022/05/28 00:37:18;;;;;;;9.38;1.88;;;;;;;;;;5073272;28;20048;-71
2022/05/28 00:39:44;;;;;;;7.65;2.00;;;;;;;;;;5055203;28;20045;-71
2022/05/28 00:42:10;;;;;;;10.55;2.65;;;11.50;99.90;;;;;;5072081;28;20404;-71
2022/05/28 00:44:36;;;;;;;8.95;2.00;;;11.40;99.90;;;;;;5073214;28;20039;-71
2022/05/28 00:47:02;;;;;;;7.72;1.80;;;11.30;99.90;;;;;;5038712;28;20044;-71
2022/05/28 00:49:30;;;;;;;6.10;1.67;;;11.20;99.90;;;;;;5071965;28;20060;-71
2022/05/28 00:52:03;;;;;;;12.40;2.58;;;11.20;99.90;;;;;;5072871;28;20044;-71
2022/05/28 00:54:35;;;;;;;7.18;1.60;;;11.10;99.90;;;;;;5054674;28;20545;-71
2022/05/28 00:57:02;;;;;;;9.75;2.50;;;11.10;99.90;;;;;;5054516;28;20102;-71
2022/05/28 00:59:28;;;;;;;10.50;2.45;;;11.10;99.90;;;;;;5054711;28;20044;-71
2022/05/28 01:02:00;;;;;;;7.35;1.65;;;11.10;99.90;;;;;;5055118;28;20123;-71
2022/05/28 01:04:40;;;;;;;7.72;2.15;;;11.10;99.90;;;;;;5071868;28;20097;-71
2022/05/28 01:07:23;;;;;;;8.57;2.55;;;11.10;99.90;;;;;;5072582;28;20432;-71
2022/05/28 01:10:15;;;;;;;7.20;1.70;;;11.00;99.90;;;;;;5071991;28;20040;-71
2022/05/28 01:12:56;;;;;;;7.68;1.73;;;11.00;99.90;;;;;;5054963;28;20063;-71
2022/05/28 01:15:33;;;;;;;9.23;1.77;;;11.00;99.90;;;;;;5072303;28;20051;-70
2022/05/28 01:18:26;;;;;;;7.57;1.98;;;11.00;99.90;;;;;;5071510;28;20063;-70
2022/05/28 01:20:56;;;;;;;11.02;2.15;;;10.90;99.90;;;;;;5072270;28;20044;-70
2022/05/28 01:23:46;;;;;;;7.05;1.65;;;11.00;99.90;;;;;;5072005;28;20062;-70
2022/05/28 01:26:49;;;;;;;6.90;1.75;;;10.90;99.90;;;;;;5072044;28;20040;-71
2022/05/28 01:29:17;;;;;;;6.05;1.85;;;10.90;99.90;;;;;;5072228;28;20043;-70
2022/05/28 01:31:46;;;;;;;7.40;2.15;;;10.90;99.90;;;;;;5071551;28;20071;-71
2022/05/28 01:34:13;;;;;;;9.45;1.90;;;10.90;99.90;;;;;;5053779;28;20485;-70
2022/05/28 01:36:40;;;;;;;9.40;2.35;;;10.90;99.90;;;;;;5072519;28;20037;-70
2022/05/28 01:39:07;;;;;;;11.32;2.20;;;10.90;99.90;;;;;;5071069;28;20047;-71
2022/05/28 01:41:34;;;;;;;13.07;2.75;;;11.00;99.90;;;;;;5054350;28;20041;-70
2022/05/28 01:44:01;;;;;;;10.07;2.28;;;10.90;99.90;;;;;;5054242;28;20129;-70
2022/05/28 01:46:29;;;;;;;10.95;2.13;;;10.90;99.90;;;;;;5071071;28;20040;-70
2022/05/28 01:48:56;;;;;;;10.48;1.80;;;10.90;99.90;;;;;;5053948;28;20059;-70
2022/05/28 01:51:25;;;;;;;6.13;2.00;;;10.90;99.90;;;;;;5072112;28;20084;-70
2022/05/28 01:54:07;;;;;;;12.15;2.10;;;11.00;99.90;;;;;;5053547;28;20048;-70
2022/05/28 01:56:35;;;;;;;9.73;2.60;;;11.00;99.90;;;;;;5072194;28;20045;-70
2022/05/28 01:59:01;;;;;;;8.45;2.30;;;11.00;99.90;;;;;;5053018;28;20056;-71
2022/05/28 02:01:27;;;;;;;10.32;2.80;;;11.00;99.90;;;;;;5053840;28;20182;-71
2022/05/28 02:03:57;;;;;;;10.45;2.35;;;11.00;99.90;;;;;;5054046;28;20370;-71
2022/05/28 02:06:24;;;;;;;17.48;3.47;;;11.00;99.90;;;;;;5036473;28;20041;-71
2022/05/28 02:08:52;;;;;;;8.50;1.92;;;11.00;99.90;;;;;;5054140;28;20049;-71
2022/05/28 02:11:25;;;;;;;10.00;1.92;;;11.00;99.90;;;;;;5071704;28;20036;-71
2022/05/28 02:14:13;;;;;;;7.65;2.15;;;11.00;99.90;;;;;;5071160;28;20453;-71
2022/05/28 02:16:57;;;;;;;14.88;3.22;;;11.00;99.90;;;;;;5072159;28;20094;-71
2022/05/28 02:19:59;;;;;;;9.75;2.17;;;11.00;99.90;;;;;;5036953;28;20103;-71
2022/05/28 02:23:10;;;;;;;12.48;2.42;;;11.10;99.90;;;;;;5071998;28;20048;-71
2022/05/28 02:25:51;;;;;;;10.43;2.30;;;11.10;99.90;;;;;;5054438;28;20052;-71
2022/05/28 02:28:17;;;;;;;12.00;2.78;;;11.10;99.90;;;;;;5071030;28;20401;-71
2022/05/28 02:30:50;;;;;;;16.52;2.85;;;11.10;99.90;;;;;;5054141;28;20119;-70
2022/05/28 02:33:17;;;;;;;10.60;2.90;;;11.10;99.90;;;;;;5071750;28;20127;-70
2022/05/28 02:35:44;;;;;;;12.90;3.30;;;11.10;99.90;;;;;;5071006;28;20447;-71
2022/05/28 02:38:14;;;;;;;13.35;3.95;;;11.00;99.90;;;;;;5071073;28;20127;-71
2022/05/28 02:40:39;;;;;;;10.85;2.45;;;11.00;99.90;;;;;;5071699;28;20040;-71
2022/05/28 02:43:05;;;;;;;9.15;2.13;;;11.00;99.90;;;;;;5070631;28;20036;-70
2022/05/28 02:45:31;;;;;;;13.80;2.95;;;11.00;99.90;;;;;;5053748;28;20524;-71
2022/05/28 02:47:57;;;;;;;14.95;3.55;;;11.00;99.90;;;;;;5056328;28;20041;-71
2022/05/28 02:50:26;;;;;;;13.95;3.45;;;10.90;99.90;;;;;;5056321;28;20140;-72
2022/05/28 02:52:52;;;;;;;11.70;2.90;;;10.90;99.90;;;;;;5057407;28;20398;-71
2022/05/28 02:55:19;;;;;;;10.23;2.22;;;10.90;99.90;;;;;;5056323;28;20040;-71
2022/05/28 02:57:44;;;;;;;10.85;2.72;;;10.90;99.90;;;;;;5075062;28;20497;-71
2022/05/28 03:00:11;;;;;;;14.52;2.92;;;10.90;99.90;;;;;;5057193;28;20087;-71
2022/05/28 03:02:36;;;;;;;9.93;2.45;;;10.90;99.90;;;;;;5056577;28;20075;-71
2022/05/28 03:05:03;;;;;;;14.15;3.72;;;11.00;99.90;;;;;;5057190;28;20068;-71
2022/05/28 03:07:28;;;;;;;15.27;2.60;;;10.90;99.90;;;;;;5074747;28;20033;-71
2022/05/28 03:09:54;;;;;;;13.10;3.30;;;11.10;99.90;;;;;;5056200;28;20045;-70
2022/05/28 03:12:19;;;;;;;11.65;2.80;;;10.90;99.90;;;;;;5074946;28;20422;-70
2022/05/28 03:14:45;;;;;;;10.80;2.80;;;10.90;99.90;;;;;;5075227;28;20119;-70
2022/05/28 03:17:11;;;;;;;16.40;3.85;;;10.90;99.90;;;;;;5055952;28;20493;-71
2022/05/28 03:19:36;;;;;;;14.75;3.15;;;10.90;99.90;;;;;;5074961;28;20536;-71
2022/05/28 03:22:02;;;;;;;12.50;3.22;;;10.90;99.90;;;;;;5074568;28;20122;-70
2022/05/28 03:24:28;;;;;;;14.20;3.13;;;10.90;99.90;;;;;;5073683;28;20033;-71
2022/05/28 03:26:57;;;;;;;12.75;2.78;;;10.90;99.90;;;;;;5056903;28;20376;-70
2022/05/28 03:29:24;;;;;;;11.63;2.60;;;10.90;99.90;;;;;;5074633;28;20488;-70
2022/05/28 03:31:50;;;;;;;13.35;4.00;;;10.90;99.90;;;;;;5073878;28;20043;-71
2022/05/28 03:34:15;;;;;;;18.90;3.28;;;10.90;99.90;;;;;;5056383;28;20393;-71
2022/05/28 03:36:41;;;;;;;10.52;2.55;;;11.00;99.90;;;;;;5056748;28;20119;-70
2022/05/28 03:39:07;;;;;;;9.38;2.65;;;11.00;99.90;;;;;;5055307;28;20047;-71
2022/05/28 03:41:33;;;;;;;16.42;3.55;;;11.00;99.90;;;;;;5056698;28;20044;-70
2022/05/28 03:43:59;;;;;;;15.23;3.50;;;11.00;99.90;;;;;;5056213;28;20478;-70
2022/05/28 03:46:31;;;;;;;9.75;2.65;;;11.70;99.90;;;;;;5055913;28;20056;-70
2022/05/28 03:49:34;;;;;;;11.10;2.53;;;11.10;99.90;;;;;;5073904;28;20405;-70
2022/05/28 03:52:01;;;;;;;10.88;3.40;;;11.10;99.90;;;;;;5067706;28;20056;-70
2022/05/28 03:54:27;;;;;;;12.60;3.20;;;11.10;99.90;;;;;;5074084;28;20048;-70
2022/05/28 03:56:57;;;;;;;10.90;3.10;;;11.20;99.90;;;;;;5074198;28;20047;-71
2022/05/28 03:59:23;;;;;;;10.80;2.58;;;11.60;99.90;;;;;;5071867;28;20052;-70
2022/05/28 04:01:49;;;;;;;15.40;2.85;;;11.10;99.90;;;;;;5073600;28;20386;-73
2022/05/28 04:04:14;;;;;;;11.50;3.10;;;11.00;99.90;;;;;;5073987;28;20166;-70
2022/05/28 04:06:40;;;;;;;11.93;2.63;;;;;;;;;;5055506;28;20496;-72
2022/05/28 04:09:06;;;;;;;14.25;3.40;;;10.80;99.90;;;;;;5069384;28;20710;-73
2022/05/28 04:11:32;;;;;;;12.02;2.95;;;11.10;99.90;;;;;;5052690;28;20052;-73
2022/05/28 04:13:58;;;;;;;11.38;2.75;;;11.00;99.90;;;;;;5070606;28;20476;-73
2022/05/28 04:16:25;;;;;;;17.23;3.00;;;10.90;99.90;;;;;;5070397;28;20042;-73
2022/05/28 04:18:51;;;;;;;14.05;4.68;;;10.90;99.90;;;;;;5052503;28;20493;-73
2022/05/28 04:21:17;;;;;;;10.80;2.58;;;11.00;99.90;;;;;;5051795;28;20044;-73
2022/05/28 04:23:43;;;;;;;14.27;2.70;;;10.90;99.90;;;;;;5052973;28;20044;-73
2022/05/28 04:26:09;;;;;;;12.38;3.88;;;10.90;99.90;;;;;;5070301;28;20077;-73
2022/05/28 04:28:34;;;;;;;16.17;4.05;;;10.90;99.90;;;;;;5070200;28;20542;-73
2022/05/28 04:31:00;;;;;;;10.25;3.10;;;10.90;99.90;;;;;;5070493;28;20095;-73
2022/05/28 04:33:26;;;;;;;16.85;3.35;;;11.00;99.90;;;;;;5070150;28;20397;-74
2022/05/28 04:35:51;;;;;;;11.20;2.42;;;11.00;99.90;;;;;;5069641;28;20044;-74
2022/05/28 04:38:17;;;;;;;16.52;3.85;;;11.00;99.90;;;;;;5052712;28;20380;-74
2022/05/28 04:40:43;;;;;;;9.90;3.13;;;11.00;99.90;;;;;;5051644;28;20536;-74
2022/05/28 04:43:08;;;;;;;12.05;3.15;;;11.10;99.90;;;;;;5052204;28;20072;-74
2022/05/28 04:45:34;;;;;;;15.85;3.08;;;11.10;99.90;;;;;;5051906;28;20040;-74
2022/05/28 04:47:59;;;;;;;12.82;3.10;;;11.40;99.90;;;;;;5053077;28;20045;-73
2022/05/28 04:50:25;;;;;;;10.25;2.67;;;11.10;99.90;;;;;;5072660;28;20067;-73
2022/05/28 04:52:51;;;;;;;18.05;3.50;;;11.20;99.90;;;;;;5072125;28;20066;-73
2022/05/28 04:55:16;;;;;;;10.23;3.97;;;11.20;99.90;;;;;;5071970;28;20033;-74
2022/05/28 04:57:42;;;;;;;11.30;3.20;;;11.20;99.90;;;;;;5072875;28;20032;-74
2022/05/28 05:00:12;;;;;;;8.20;2.47;;;11.30;99.90;;;;;;5054186;28;20557;-75
2022/05/28 05:02:37;;;;;;;8.25;2.03;;;11.30;99.90;;;;;;5072141;28;20051;-73
2022/05/28 05:05:04;;;;;;;7.50;2.00;;;;;;;;;;5054485;28;20036;-75
2022/05/28 05:07:30;;;;;;;12.20;2.25;;;;;;;;;;5055039;28;20134;-76
2022/05/28 05:09:55;;;;;;;9.80;2.20;;;10.50;99.90;;;;;;5071350;28;20199;-76
2022/05/28 05:12:21;;;;;;;7.45;1.75;;;11.00;99.90;;;;;;5072514;28;20037;-76
2022/05/28 05:14:47;;;;;;;8.77;1.70;;;;;;;;;;5054830;28;20400;-75
2022/05/28 05:17:13;;;;;;;7.90;1.85;;;;;;;;;;5053557;28;20111;-75
2022/05/28 05:19:39;;;;;;;7.88;2.15;;;10.20;99.90;;;;;;5072769;28;20045;-76
2022/05/28 05:22:04;;;;;;;6.80;1.95;;;10.30;99.90;;;;;;5072262;28;20032;-75
2022/05/28 05:24:31;;;;;;;8.25;1.92;;;10.80;99.90;;;;;;5054069;28;20107;-76
2022/05/28 05:26:57;;;;;;;8.60;1.95;;;10.60;99.90;;;;;;5054419;28;20033;-75
2022/05/28 05:29:22;;;;;;;6.28;1.95;;;11.00;99.90;;;;;;5054177;28;20062;-75
2022/05/28 05:31:48;;;;;;;7.82;2.40;;;10.70;99.90;;;;;;5071831;28;20139;-75
2022/05/28 05:34:14;;;;;;;13.55;2.95;;;10.60;99.90;;;;;;5072295;28;20041;-74
2022/05/28 05:36:40;;;;;;;8.60;2.80;;;;;;;;;;5072571;28;20043;-74
2022/05/28 05:39:05;;;;;;;17.48;3.30;;;10.80;99.90;;;;;;5071198;28;20041;-74
2022/05/28 05:41:31;;;;;;;16.98;4.32;;;10.90;99.90;;;;;;5054413;28;20401;-73
2022/05/28 05:43:56;;;;;;;15.98;3.78;;;11.00;99.90;;;;;;5053271;28;20120;-74
2022/05/28 05:46:22;;;;;;;14.05;4.57;;;11.00;99.90;;;;;;5054104;28;20043;-74
2022/05/28 05:48:47;;;;;;;14.10;4.20;;;11.10;99.90;;;;;;5072302;28;20059;-74
2022/05/28 05:51:16;;;;;;;17.98;3.40;;;11.20;99.90;;;;;;5053265;28;20515;-74
2022/05/28 05:53:42;;;;;;;9.32;2.78;;;11.50;99.90;;;;;;5054461;28;20051;-74
2022/05/28 05:56:09;;;;;;;11.00;2.85;;;11.60;99.90;;;;;;5053579;28;20044;-75
2022/05/28 05:58:35;;;;;;;10.35;2.92;;;11.40;99.90;;;;;;5070995;28;20045;-75
2022/05/28 06:01:03;;;;;;;15.00;3.92;;;11.60;99.90;;;;;;5053831;28;20036;-75
2022/05/28 06:03:29;;;;;;;10.98;2.75;;;11.60;99.90;;;;;;5054106;28;20055;-75
2022/05/28 06:06:06;;;;;;;12.40;3.10;;;11.60;99.90;;;;;;5071120;28;20032;-74
2022/05/28 06:08:32;;;;;;;24.35;4.53;;;11.60;99.90;;;;;;5072000;28;20493;-75
2022/05/28 06:10:59;;;;;;;18.05;5.13;;;11.60;99.90;;;;;;5071650;28;20043;-75
2022/05/28 06:13:24;;;;;;;13.90;3.45;;;11.60;99.90;;;;;;5070760;28;20606;-75
2022/05/28 06:15:50;;;;;;;19.48;4.85;;;11.40;99.90;;;;;;5071739;28;20056;-75
2022/05/28 06:18:17;;;;;;;11.52;3.60;;;11.40;99.90;;;;;;5071667;28;20048;-75
2022/05/28 06:20:42;;;;;;;12.07;3.88;;;11.30;99.90;;;;;;5053554;28;20095;-74
2022/05/28 06:23:08;;;;;;;15.32;3.88;;;11.30;99.90;;;;;;5074853;28;20572;-76
2022/05/28 06:25:37;;;;;;;14.80;3.67;;;11.40;99.90;;;;;;5058084;28;20045;-75
2022/05/28 06:28:09;;;;;;;17.98;4.43;;;11.40;99.90;;;;;;5073980;28;20039;-75
2022/05/28 06:30:34;;;;;;;11.68;3.22;;;11.40;99.90;;;;;;5056135;28;20043;-75
2022/05/28 06:33:01;;;;;;;14.57;3.60;;;11.40;99.90;;;;;;5057976;28;20040;-74
2022/05/28 06:35:26;;;;;;;12.35;3.45;;;11.40;99.90;;;;;;5045780;28;20451;-74
2022/05/28 06:37:52;;;;;;;13.70;2.97;;;11.40;99.90;;;;;;5055555;28;20091;-73
2022/05/28 06:40:18;;;;;;;15.20;3.95;;;11.50;99.90;;;;;;5065689;28;20044;-74
2022/05/28 06:42:46;;;;;;;13.88;3.55;;;11.40;99.90;;;;;;5057400;28;20436;-74
2022/05/28 06:45:14;;;;;;;13.93;4.35;;;11.50;99.90;;;;;;5075364;28;20040;-74
2022/05/28 06:47:42;;;;;;;12.93;3.47;;;11.50;99.90;;;;;;5075349;28;20115;-75
2022/05/28 06:53:48;;;;;;;14.25;4.20;;;11.50;99.90;;;;;;5074811;28;20048;-76
2022/05/28 06:56:16;;;;;;;13.75;2.95;;;11.70;99.90;;;;;;5044802;28;20115;-74
2022/05/28 06:58:45;;;;;;;14.25;3.10;;;11.70;99.90;;;;;;5066270;28;20048;-74
2022/05/28 07:01:12;;;;;;;12.20;3.53;;;11.80;99.90;;;;;;5073521;28;20094;-74
2022/05/28 07:03:39;;;;;;;13.60;3.50;;;11.90;99.90;;;;;;5075110;28;20082;-74
2022/05/28 07:06:05;;;;;;;10.77;3.60;;;11.90;99.90;;;;;;5057043;28;20079;-74
2022/05/28 07:08:31;;;;;;;14.68;3.30;;;12.00;99.90;;;;;;5056168;28;20044;-74
2022/05/28 07:10:59;;;;;;;11.73;3.47;;;12.10;99.90;;;;;;5064161;28;20040;-74
2022/05/28 07:13:26;;;;;;;15.98;3.33;;;12.10;99.90;;;;;;5074681;28;20489;-74
2022/05/28 07:15:52;;;;;;;15.65;3.63;;;12.10;99.90;;;;;;5055350;28;20060;-73
2022/05/28 07:18:18;;;;;;;18.65;6.88;;;12.20;99.90;;;;;;5036767;28;20045;-75
2022/05/28 07:20:44;;;;;;;12.50;4.15;;;12.20;99.90;;;;;;5053740;28;20037;-75
2022/05/28 07:23:20;;;;;;;14.13;3.85;;;12.20;99.90;;;;;;5055423;28;20052;-75
2022/05/28 07:25:46;;;;;;;12.75;4.03;;;12.10;99.90;;;;;;5056774;28;20052;-75
2022/05/28 07:28:24;;;;;;;11.40;4.40;;;12.10;99.90;;;;;;5055950;28;20393;-74
2022/05/28 07:31:01;;;;;;;22.80;8.82;;;12.10;99.90;;;;;;5055885;28;20500;-75
2022/05/28 07:33:28;;;;;;;20.63;10.98;;;12.20;99.90;;;;;;5056247;28;20497;-75
2022/05/28 07:35:55;;;;;;;10.65;4.80;;;12.20;99.90;;;;;;5074598;28;20094;-76
2022/05/28 07:38:22;;;;;;;15.82;5.47;;;12.30;99.90;;;;;;5073502;28;20489;-75
2022/05/28 07:40:48;;;;;;;18.00;8.68;;;12.30;99.90;;;;;;5056797;28;20693;-75
2022/05/28 07:43:14;;;;;;;17.85;7.18;;;12.20;99.90;;;;;;5074087;28;20444;-75
2022/05/28 07:45:43;;;;;;;24.58;12.38;;;12.10;99.90;;;;;;5073517;28;20126;-75
2022/05/28 07:48:09;;;;;;;18.55;8.95;;;12.00;99.90;;;;;;5073589;28;20102;-74
2022/05/28 07:50:35;;;;;;;15.63;7.15;;;12.00;99.90;;;;;;5068897;28;20056;-75
2022/05/28 07:53:01;;;;;;;16.13;7.65;;;12.00;99.90;;;;;;5072930;28;20040;-75
2022/05/28 07:55:27;;;;;;;13.40;4.22;;;12.00;99.90;;;;;;5073957;28;20051;-75
2022/05/28 07:57:53;;;;;;;14.90;5.03;;;12.30;99.90;;;;;;5033904;28;20048;-74
2022/05/28 08:00:19;;;;;;;14.60;3.75;;;;;;;;;;5073772;28;20040;-74
2022/05/28 08:02:46;;;;;;;14.05;4.20;;;;;;;;;;5074531;28;20090;-72
2022/05/28 08:05:12;;;;;;;15.40;5.03;;;;;;;;;;5072725;28;20036;-74
2022/05/28 08:07:38;;;;;;;14.65;3.58;;;;;;;;;;5056054;28;20075;-75
2022/05/28 08:10:05;;;;;;;11.18;4.38;;;;;;;;;;5055521;28;20466;-75
2022/05/28 08:12:31;;;;;;;14.05;3.92;;;;;;;;;;5073410;28;20048;-77
2022/05/28 08:14:58;;;;;;;12.80;3.10;;;;;;;;;;5056117;28;20432;-75
2022/05/28 08:17:24;;;;;;;11.90;4.13;;;;;;;;;;5073613;28;20040;-75
2022/05/28 08:19:51;;;;;;;13.13;2.85;;;;;;;;;;5073218;28;20106;-76
2022/05/28 08:25:02;;;;;;;14.70;2.90;;;;;;;;;;5055165;28;20048;-75
2022/05/28 08:27:28;;;;;;;13.82;3.85;;;;;;;;;;5073585;28;20090;-75
2022/05/28 08:29:54;;;;;;;10.98;3.97;;;;;;;;;;5055823;28;20044;-75
2022/05/28 08:32:20;;;;;;;10.13;2.88;;;;;;;;;;5073511;28;20048;-74
2022/05/28 08:34:46;;;;;;;15.40;3.53;;;;;;;;;;5072132;28;20040;-74
2022/05/28 08:37:12;;;;;;;9.82;2.75;;;;;;;;;;5067502;28;20399;-75
2022/05/28 08:39:39;;;;;;;13.05;4.05;;;;;;;;;;5053027;28;20041;-75
2022/05/28 08:42:06;;;;;;;14.45;3.33;;;;;;;;;;5054411;28;20146;-74
2022/05/28 08:44:33;;;;;;;9.55;3.22;;;;;;;;;;5038203;28;20068;-74
2022/05/28 08:47:11;;;;;;;7.88;2.55;;;;;;;;;;5054413;28;20106;-74
2022/05/28 08:49:37;;;;;;;13.82;3.47;;;;;;;;;;5055073;28;20498;-73
2022/05/28 08:52:13;;;;;;;13.35;3.20;;;;;;;;;;5050940;28;20044;-75
2022/05/28 08:54:42;;;;;;;9.00;3.88;;;;;;;;;;5035007;28;20048;-75
2022/05/28 08:57:11;;;;;;;13.25;4.55;;;;;;;;;;5034987;28;20036;-74
2022/05/28 08:59:44;;;;;;;25.13;6.82;;;;;;;;;;5053356;28;20037;-75
2022/05/28 09:02:16;;;;;;;15.05;6.63;;;;;;;;;;5034050;28;20056;-75
2022/05/28 09:04:43;;;;;;;18.02;6.32;;;;;;;;;;5053189;28;20033;-75
2022/05/28 09:07:13;;;;;;;14.55;3.35;;;;;;;;;;5034691;28;20049;-77
2022/05/28 09:09:40;;;;;;;17.48;3.58;;;;;;;;;;5052590;28;20052;-76
2022/05/28 09:12:08;;;;;;;10.52;2.90;;;;;;;;;;5034514;28;20048;-74
2022/05/28 09:14:39;;;;;;;8.75;3.25;;;;;;;;;;5052768;28;20100;-75
2022/05/28 09:17:09;;;;;;;13.27;3.00;;;;;;;;;;5051858;28;20068;-74
2022/05/28 09:19:40;;;;;;;10.68;3.78;;;13.60;99.90;;;;;;5034940;28;20049;-74
2022/05/28 09:22:06;;;;;;;13.35;3.80;;;13.70;99.90;;;;;;5033575;28;20041;-74
2022/05/28 09:24:33;;;;;;;14.20;3.85;;;13.60;99.90;;;;;;5064129;28;20045;-75
2022/05/28 09:27:06;;;;;;;12.75;3.65;;;13.70;99.90;;;;;;5072007;28;20044;-75
2022/05/28 09:29:44;;;;;;;14.48;3.72;;;13.70;99.90;;;;;;5071704;28;20049;-74
2022/05/28 09:32:49;;;;;;;12.90;2.97;;;13.70;99.90;;;;;;5069796;28;20087;-74
2022/05/28 09:35:24;;;;;;;14.80;3.75;;;13.50;99.90;;;;;;5054172;28;20093;-73
2022/05/28 09:38:14;;;;;;;12.32;2.75;;;13.40;99.90;;;;;;5053812;28;20047;-74
2022/05/28 09:40:49;;;;;;;11.35;3.50;;;13.40;99.90;;;;;;5054940;28;20508;-74
2022/05/28 09:43:43;;;;;;;11.73;3.38;;;13.30;99.90;;;;;;5071996;28;20044;-76
2022/05/28 09:46:36;;;;;;;12.45;3.15;;;13.20;99.90;;;;;;5071938;28;20086;-76
2022/05/28 09:49:05;;;;;;;11.85;2.65;;;13.10;99.90;;;;;;5053827;28;20055;-76
2022/05/28 09:51:33;;;;;;;10.45;2.65;;;13.00;99.90;;;;;;5053625;28;20052;-76
2022/05/28 09:54:17;;;;;;;8.73;2.97;;;13.00;99.90;;;;;;5053746;28;20036;-76
2022/05/28 09:56:55;;;;;;;19.98;7.72;;;13.10;99.90;;;;;;5043229;28;20378;-75
2022/05/28 09:59:59;;;;;;;11.05;4.43;;;13.50;99.90;;;;;;5071527;28;20044;-75
2022/05/28 10:02:26;;;;;;;9.60;2.50;;;13.60;99.90;;;;;;5001499;28;20049;-75
2022/05/28 10:05:13;;;;;;;15.55;4.47;;;13.40;99.90;;;;;;5065182;28;20090;-75
2022/05/28 10:07:46;;;;;;;12.63;4.32;;;13.30;99.90;;;;;;5071973;28;20047;-75
2022/05/28 10:10:20;;;;;;;15.63;5.55;;;13.10;99.90;;;;;;5053647;28;20139;-74
2022/05/28 10:12:46;;;;;;;13.10;4.78;;;12.90;99.90;;;;;;5053142;28;20062;-75
2022/05/28 10:15:59;;;;;;;18.08;5.03;;;12.80;99.90;;;;;;5071476;28;20045;-74
2022/05/28 10:18:52;;;;;;;18.42;3.65;;;12.70;99.90;;;;;;5052279;28;20163;-74
2022/05/28 10:21:24;;;;;;;16.10;4.43;;;12.70;99.90;;;;;;5071346;28;20090;-73
2022/05/28 10:23:57;;;;;;;14.32;7.03;;;12.80;99.90;;;;;;5071081;28;20450;-75
2022/05/28 10:26:29;;;;;;;13.30;5.15;;;12.90;99.90;;;;;;5070927;28;20114;-77
2022/05/28 10:29:00;;;;;;;12.98;3.28;;;12.90;99.90;;;;;;5053851;28;20045;-75
2022/05/28 10:31:30;;;;;;;10.13;2.95;;;13.00;99.90;;;;;;5071818;28;20147;-76
2022/05/28 10:33:56;;;;;;;13.65;3.05;;;13.20;99.90;;;;;;5053375;28;20080;-76
2022/05/28 10:36:31;;;;;;;15.40;3.83;;;13.50;99.90;;;;;;5053650;28;20072;-75
2022/05/28 10:39:14;;;;;;;13.52;3.08;;;13.90;99.90;;;;;;5066085;28;20127;-74
2022/05/28 10:41:42;;;;;;;12.10;5.45;;;14.20;99.90;;;;;;5053137;28;20036;-73
2022/05/28 10:44:09;;;;;;;18.52;4.95;;;14.10;99.90;;;;;;5071019;28;20067;-73
2022/05/28 10:47:03;;;;;;;12.82;4.45;;;13.70;99.90;;;;;;5053066;28;20143;-74
2022/05/28 10:49:50;;;;;;;18.75;7.15;;;13.70;99.90;;;;;;5053095;28;20067;-73
2022/05/28 10:52:34;;;;;;;14.68;5.75;;;13.60;99.90;;;;;;5071409;28;20052;-74
2022/05/28 10:55:33;;;;;;;14.35;6.70;;;13.50;99.90;;;;;;5070570;28;20041;-75
2022/05/28 10:58:19;;;;;;;20.70;12.52;;;13.40;99.90;;;;;;5053525;28;20090;-73
2022/05/28 11:00:55;;;;;;;23.60;14.57;;;13.20;99.90;;;;;;5032846;28;20049;-74
2022/05/28 11:04:18;;;;;;;16.15;3.95;;;13.20;99.90;;;;;;5048223;28;20076;-74
2022/05/28 11:07:16;;;;;;;15.13;3.70;;;13.10;99.90;;;;;;4954549;28;20046;-74
2022/05/28 11:09:41;;;;;;;13.77;3.70;;;13.10;99.90;;;;;;4941756;28;20130;-75
2022/05/28 11:12:19;;;;;;;10.68;2.97;;;13.20;99.90;;;;;;5021179;28;20204;-74
2022/05/28 11:15:03;;;;;;;11.95;3.65;;;13.20;99.90;;;;;;5063074;28;20139;-73
2022/05/28 11:18:02;;;;;;;15.45;3.10;;;13.20;99.90;;;;;;5056847;28;20048;-73
2022/05/28 11:20:44;;;;;;;14.02;2.53;;;13.40;99.90;;;;;;5057231;28;20362;-73
2022/05/28 11:23:40;;;;;;;7.43;2.22;;;13.60;99.90;;;;;;5039690;28;20090;-73
2022/05/28 11:26:34;;;;;;;11.52;3.63;;;13.90;99.90;;;;;;5056338;28;20157;-74
2022/05/28 11:29:21;;;;;;;12.50;4.70;;;14.10;99.90;;;;;;5073307;28;20040;-72
2022/05/28 11:31:52;;;;;;;8.13;3.25;;;14.20;99.90;;;;;;5052637;28;20047;-73
2022/05/28 11:34:22;;;;;;;9.48;4.63;;;14.30;99.90;;;;;;5074443;28;20377;-72
2022/05/28 11:37:14;;;;;;;13.32;3.97;;;14.40;99.90;;;;;;5056370;28;20093;-72
2022/05/28 11:40:10;;;;;;;10.60;3.60;;;14.70;99.90;;;;;;5027751;28;20512;-72
2022/05/28 11:42:51;;;;;;;13.15;3.05;;;14.80;99.90;;;;;;5038159;28;20079;-72
2022/05/28 11:46:08;;;;;;;18.58;3.13;;;14.80;99.90;;;;;;5039393;28;20052;-72
2022/05/28 11:51:48;;;;;;;11.88;3.38;;;14.10;99.90;;;;;;5073873;28;20041;-73
2022/05/28 11:54:40;;;;;;;15.32;3.25;;;13.80;99.90;;;;;;5074326;28;20034;-74
2022/05/28 11:57:20;;;;;;;12.60;3.13;;;13.60;99.90;;;;;;5072507;28;20036;-74
2022/05/28 11:59:46;;;;;;;16.80;3.67;;;13.60;99.90;;;;;;5056224;28;20409;-74
2022/05/28 12:02:18;;;;;;;15.15;3.10;;;13.90;99.90;;;;;;5073312;28;20037;-75
2022/05/28 12:04:44;;;;;;;12.45;3.47;;;13.90;99.90;;;;;;5043996;28;20405;-74
2022/05/28 12:07:24;;;;;;;14.25;3.90;;;13.90;99.90;;;;;;5055656;28;20128;-74
2022/05/28 12:09:51;;;;;;;13.60;3.65;;;13.80;99.90;;;;;;5073783;28;20063;-74
2022/05/28 12:12:23;;;;;;;15.10;4.63;;;13.80;99.90;;;;;;5055177;28;20127;-74
2022/05/28 12:15:20;;;;;;;10.63;4.05;;;13.80;99.90;;;;;;5056372;28;20041;-74
2022/05/28 12:18:06;;;;;;;16.85;3.78;;;14.00;99.90;;;;;;5055629;28;20051;-73
2022/05/28 12:20:49;;;;;;;8.57;2.60;;;14.20;99.90;;;;;;5055124;28;20036;-75
2022/05/28 12:23:37;;;;;;;15.40;3.63;;;14.40;99.90;;;;;;5055821;28;20118;-74
2022/05/28 12:29:25;;;;;;;11.77;2.97;;;14.80;99.90;;;;;;5055095;28;20109;-73
2022/05/28 12:31:50;;;;;;;12.70;2.40;;;14.40;99.90;;;;;;5054919;28;20119;-74
2022/05/28 12:34:22;;;;;;;10.82;2.42;;;14.30;99.90;;;;;;5055815;28;20158;-74
2022/05/28 12:36:53;;;;;;;10.10;2.67;;;14.30;99.90;;;;;;5073876;28;20052;-74
2022/05/28 12:39:40;;;;;;;8.35;2.40;;;14.30;99.90;;;;;;5054630;28;20465;-73
2022/05/28 12:42:20;;;;;;;9.93;2.05;;;14.20;99.90;;;;;;5072959;28;20093;-73
2022/05/28 12:44:51;;;;;;;8.15;2.20;;;14.20;99.90;;;;;;5072905;28;20435;-74
2022/05/28 12:47:26;;;;;;;8.38;2.50;;;14.10;99.90;;;;;;5054650;28;20167;-74
2022/05/28 12:50:10;;;;;;;9.50;2.97;;;14.00;99.90;;;;;;5073092;28;20056;-73
2022/05/28 12:52:52;;;;;;;11.40;3.70;;;14.00;99.90;;;;;;5055258;28;20048;-73
2022/05/28 12:55:24;;;;;;;8.32;2.10;;;14.30;99.90;;;;;;5055029;28;20129;-73
2022/05/28 12:58:02;;;;;;;23.58;2.65;;;14.30;99.90;;;;;;5038306;28;20040;-73
2022/05/28 13:00:50;;;;;;;9.90;2.17;;;14.40;99.90;;;;;;5053156;28;20044;-73
2022/05/28 13:03:22;;;;;;;11.45;2.83;;;14.40;99.90;;;;;;5054481;28;20048;-73
2022/05/28 13:05:53;;;;;;;9.40;2.90;;;14.10;99.90;;;;;;5073148;28;20071;-73
2022/05/28 13:08:28;;;;;;;7.93;2.38;;;13.90;99.90;;;;;;5061721;28;20048;-73
2022/05/28 13:10:58;;;;;;;11.05;2.53;;;13.80;99.90;;;;;;5054232;28;20076;-74
2022/05/28 13:13:57;;;;;;;13.35;2.95;;;14.00;99.90;;;;;;5071991;28;20033;-73
2022/05/28 13:17:07;;;;;;;7.07;2.00;;;14.00;99.90;;;;;;5053980;28;20044;-74
2022/05/28 13:20:00;;;;;;;8.13;2.97;;;14.10;99.90;;;;;;4997917;28;20539;-73
2022/05/28 13:22:34;;;;;;;7.22;2.33;;;14.40;99.90;;;;;;5070400;28;20048;-74
2022/05/28 13:25:18;;;;;;;7.85;2.35;;;14.60;99.90;;;;;;5071532;28;20041;-73
2022/05/28 13:28:29;;;;;;;8.43;2.00;;;14.60;99.90;;;;;;5072413;28;20028;-73
2022/05/28 13:31:00;;;;;;;8.30;2.28;;;14.70;99.90;;;;;;5066798;28;20052;-74
2022/05/28 13:33:33;;;;;;;7.38;2.65;;;14.60;99.90;;;;;;5054292;28;20049;-74
2022/05/28 13:36:00;;;;;;;7.38;2.00;;;14.60;99.90;;;;;;5071497;28;20037;-73